sensor_id;sensor_type;location;lat;lon;timestamp;P1;durP1;ratioP1;P2;durP2;ratioP2
73938;SDS011;62291;47.554;8.504;2023-07-09T00:01:15;8.57;;;6.40;;
73938;SDS011;62291;47.554;8.504;2023-07-09T00:03:43;9.32;;;6.70;;
73938;SDS011;62291;47.554;8.504;2023-07-09T00:06:09;10.77;;;6.15;;
73938;SDS011;62291;47.554;8.504;2023-07-09T00:08:37;11.10;;;6.10;;
73938;SDS011;62291;47.554;8.504;2023-07-09T00:11:07;9.77;;;6.18;;
73938;SDS011;62291;47.554;8.504;2023-07-09T00:13:33;11.13;;;6.35;;
73938;SDS011;62291;47.554;8.504;2023-07-09T00:16:00;8.07;;;4.90;;
73938;SDS011;62291;47.554;8.504;2023-07-09T00:18:27;8.35;;;5.88;;
73938;SDS011;62291;47.554;8.504;2023-07-09T00:20:53;8.77;;;5.57;;
73938;SDS011;62291;47.554;8.504;2023-07-09T00:23:19;10.38;;;6.03;;
73938;SDS011;62291;47.554;8.504;2023-07-09T00:25:44;11.32;;;6.78;;
73938;SDS011;62291;47.554;8.504;2023-07-09T00:28:14;9.73;;;5.57;;
73938;SDS011;62291;47.554;8.504;2023-07-09T00:30:41;9.93;;;5.45;;
73938;SDS011;62291;47.554;8.504;2023-07-09T00:33:11;12.23;;;7.45;;
73938;SDS011;62291;47.554;8.504;2023-07-09T00:35:41;11.98;;;8.57;;
73938;SDS011;62291;47.554;8.504;2023-07-09T00:38:12;13.93;;;8.57;;
73938;SDS011;62291;47.554;8.504;2023-07-09T00:40:58;12.73;;;7.45;;
73938;SDS011;62291;47.554;8.504;2023-07-09T00:43:26;12.82;;;6.78;;
73938;SDS011;62291;47.554;8.504;2023-07-09T00:48:36;8.00;;;6.57;;
73938;SDS011;62291;47.554;8.504;2023-07-09T00:51:04;14.25;;;7.60;;
73938;SDS011;62291;47.554;8.504;2023-07-09T00:53:40;15.07;;;6.00;;
73938;SDS011;62291;47.554;8.504;2023-07-09T00:56:13;10.10;;;6.43;;
73938;SDS011;62291;47.554;8.504;2023-07-09T00:58:42;8.35;;;6.05;;
73938;SDS011;62291;47.554;8.504;2023-07-09T01:01:11;8.32;;;5.95;;
73938;SDS011;62291;47.554;8.504;2023-07-09T01:03:44;10.40;;;7.00;;
73938;SDS011;62291;47.554;8.504;2023-07-09T01:06:12;8.63;;;6.30;;
73938;SDS011;62291;47.554;8.504;2023-07-09T01:08:40;10.38;;;6.65;;
73938;SDS011;62291;47.554;8.504;2023-07-09T01:11:20;10.90;;;8.27;;
73938;SDS011;62291;47.554;8.504;2023-07-09T01:13:58;11.20;;;6.80;;
73938;SDS011;62291;47.554;8.504;2023-07-09T01:16:30;10.70;;;7.00;;
73938;SDS011;62291;47.554;8.504;2023-07-09T01:19:01;14.20;;;6.60;;
73938;SDS011;62291;47.554;8.504;2023-07-09T01:21:26;10.88;;;7.53;;
73938;SDS011;62291;47.554;8.504;2023-07-09T01:23:52;12.38;;;6.53;;
73938;SDS011;62291;47.554;8.504;2023-07-09T01:26:20;11.82;;;6.82;;
73938;SDS011;62291;47.554;8.504;2023-07-09T01:28:54;9.40;;;6.80;;
73938;SDS011;62291;47.554;8.504;2023-07-09T01:31:20;10.80;;;7.38;;
73938;SDS011;62291;47.554;8.504;2023-07-09T01:33:47;12.45;;;7.43;;
73938;SDS011;62291;47.554;8.504;2023-07-09T01:36:14;12.68;;;6.97;;
73938;SDS011;62291;47.554;8.504;2023-07-09T01:38:43;18.20;;;9.90;;
73938;SDS011;62291;47.554;8.504;2023-07-09T01:41:09;19.05;;;9.60;;
73938;SDS011;62291;47.554;8.504;2023-07-09T01:43:39;12.63;;;7.20;;
73938;SDS011;62291;47.554;8.504;2023-07-09T01:46:09;10.98;;;8.30;;
73938;SDS011;62291;47.554;8.504;2023-07-09T01:48:35;11.32;;;7.82;;
73938;SDS011;62291;47.554;8.504;2023-07-09T01:51:09;11.93;;;7.90;;
73938;SDS011;62291;47.554;8.504;2023-07-09T01:53:36;10.38;;;8.88;;
73938;SDS011;62291;47.554;8.504;2023-07-09T01:56:03;12.20;;;8.80;;
73938;SDS011;62291;47.554;8.504;2023-07-09T01:58:32;10.75;;;8.43;;
73938;SDS011;62291;47.554;8.504;2023-07-09T02:00:58;13.00;;;8.65;;
73938;SDS011;62291;47.554;8.504;2023-07-09T02:03:24;14.00;;;8.98;;
73938;SDS011;62291;47.554;8.504;2023-07-09T02:05:53;11.57;;;9.07;;
73938;SDS011;62291;47.554;8.504;2023-07-09T02:08:19;15.00;;;8.68;;
73938;SDS011;62291;47.554;8.504;2023-07-09T02:10:47;11.73;;;7.15;;
73938;SDS011;62291;47.554;8.504;2023-07-09T02:13:14;9.60;;;8.00;;
73938;SDS011;62291;47.554;8.504;2023-07-09T02:15:40;10.75;;;6.95;;
73938;SDS011;62291;47.554;8.504;2023-07-09T02:18:11;14.20;;;8.25;;
73938;SDS011;62291;47.554;8.504;2023-07-09T02:20:40;12.15;;;8.23;;
73938;SDS011;62291;47.554;8.504;2023-07-09T02:23:06;10.43;;;8.50;;
73938;SDS011;62291;47.554;8.504;2023-07-09T02:25:33;15.15;;;9.43;;
73938;SDS011;62291;47.554;8.504;2023-07-09T02:27:59;11.80;;;9.48;;
73938;SDS011;62291;47.554;8.504;2023-07-09T02:30:24;12.90;;;9.43;;
73938;SDS011;62291;47.554;8.504;2023-07-09T02:32:50;13.50;;;8.80;;
73938;SDS011;62291;47.554;8.504;2023-07-09T02:35:19;11.65;;;8.55;;
73938;SDS011;62291;47.554;8.504;2023-07-09T02:37:45;13.80;;;8.98;;
73938;SDS011;62291;47.554;8.504;2023-07-09T02:40:12;13.85;;;8.88;;
73938;SDS011;62291;47.554;8.504;2023-07-09T02:42:38;21.50;;;9.10;;
73938;SDS011;62291;47.554;8.504;2023-07-09T02:45:04;16.42;;;8.18;;
73938;SDS011;62291;47.554;8.504;2023-07-09T02:47:30;11.95;;;7.80;;
73938;SDS011;62291;47.554;8.504;2023-07-09T02:49:56;15.40;;;7.57;;
73938;SDS011;62291;47.554;8.504;2023-07-09T02:52:22;22.08;;;8.25;;
73938;SDS011;62291;47.554;8.504;2023-07-09T02:54:47;14.93;;;9.23;;
73938;SDS011;62291;47.554;8.504;2023-07-09T02:57:13;20.65;;;9.38;;
73938;SDS011;62291;47.554;8.504;2023-07-09T02:59:38;22.60;;;9.50;;
73938;SDS011;62291;47.554;8.504;2023-07-09T03:02:04;12.88;;;9.13;;
73938;SDS011;62291;47.554;8.504;2023-07-09T03:04:30;12.13;;;9.60;;
73938;SDS011;62291;47.554;8.504;2023-07-09T03:06:56;16.27;;;8.80;;
73938;SDS011;62291;47.554;8.504;2023-07-09T03:09:22;18.20;;;10.02;;
73938;SDS011;62291;47.554;8.504;2023-07-09T03:11:48;14.00;;;10.27;;
73938;SDS011;62291;47.554;8.504;2023-07-09T03:14:14;10.98;;;7.40;;
73938;SDS011;62291;47.554;8.504;2023-07-09T03:16:41;11.70;;;9.45;;
73938;SDS011;62291;47.554;8.504;2023-07-09T03:19:06;12.30;;;9.27;;
73938;SDS011;62291;47.554;8.504;2023-07-09T03:21:32;14.43;;;8.55;;
73938;SDS011;62291;47.554;8.504;2023-07-09T03:23:58;19.98;;;11.30;;
73938;SDS011;62291;47.554;8.504;2023-07-09T03:26:24;11.77;;;9.00;;
73938;SDS011;62291;47.554;8.504;2023-07-09T03:28:51;17.20;;;9.25;;
73938;SDS011;62291;47.554;8.504;2023-07-09T03:31:17;13.90;;;9.68;;
73938;SDS011;62291;47.554;8.504;2023-07-09T03:33:43;13.07;;;8.50;;
73938;SDS011;62291;47.554;8.504;2023-07-09T03:36:12;12.55;;;8.68;;
73938;SDS011;62291;47.554;8.504;2023-07-09T03:38:38;17.83;;;10.52;;
73938;SDS011;62291;47.554;8.504;2023-07-09T03:41:04;11.18;;;7.80;;
73938;SDS011;62291;47.554;8.504;2023-07-09T03:43:31;10.80;;;8.13;;
73938;SDS011;62291;47.554;8.504;2023-07-09T03:45:56;12.30;;;8.57;;
73938;SDS011;62291;47.554;8.504;2023-07-09T03:48:22;13.77;;;10.32;;
73938;SDS011;62291;47.554;8.504;2023-07-09T03:50:48;20.48;;;12.02;;
73938;SDS011;62291;47.554;8.504;2023-07-09T03:53:14;14.88;;;8.20;;
73938;SDS011;62291;47.554;8.504;2023-07-09T03:55:41;17.40;;;9.30;;
73938;SDS011;62291;47.554;8.504;2023-07-09T03:58:07;16.08;;;9.45;;
73938;SDS011;62291;47.554;8.504;2023-07-09T04:00:33;18.95;;;10.05;;
73938;SDS011;62291;47.554;8.504;2023-07-09T04:02:59;19.30;;;11.73;;
73938;SDS011;62291;47.554;8.504;2023-07-09T04:05:25;16.20;;;10.38;;
73938;SDS011;62291;47.554;8.504;2023-07-09T04:07:52;22.95;;;11.63;;
73938;SDS011;62291;47.554;8.504;2023-07-09T04:10:18;13.18;;;8.80;;
73938;SDS011;62291;47.554;8.504;2023-07-09T04:12:44;14.55;;;8.65;;
73938;SDS011;62291;47.554;8.504;2023-07-09T04:15:10;18.05;;;7.65;;
73938;SDS011;62291;47.554;8.504;2023-07-09T04:17:38;12.90;;;6.60;;
73938;SDS011;62291;47.554;8.504;2023-07-09T04:20:05;10.85;;;5.97;;
73938;SDS011;62291;47.554;8.504;2023-07-09T04:22:32;8.15;;;6.53;;
73938;SDS011;62291;47.554;8.504;2023-07-09T04:24:59;11.77;;;6.70;;
73938;SDS011;62291;47.554;8.504;2023-07-09T04:27:25;16.45;;;6.85;;
73938;SDS011;62291;47.554;8.504;2023-07-09T04:29:53;7.90;;;5.13;;
73938;SDS011;62291;47.554;8.504;2023-07-09T04:32:20;8.88;;;5.30;;
73938;SDS011;62291;47.554;8.504;2023-07-09T04:34:46;11.18;;;5.25;;
73938;SDS011;62291;47.554;8.504;2023-07-09T04:37:14;16.80;;;5.60;;
73938;SDS011;62291;47.554;8.504;2023-07-09T04:39:44;12.55;;;5.80;;
73938;SDS011;62291;47.554;8.504;2023-07-09T04:42:14;11.80;;;6.30;;
73938;SDS011;62291;47.554;8.504;2023-07-09T04:44:41;9.02;;;5.70;;
73938;SDS011;62291;47.554;8.504;2023-07-09T04:47:07;11.57;;;6.07;;
73938;SDS011;62291;47.554;8.504;2023-07-09T04:49:33;9.23;;;5.57;;
73938;SDS011;62291;47.554;8.504;2023-07-09T04:51:59;7.43;;;6.25;;
73938;SDS011;62291;47.554;8.504;2023-07-09T04:54:28;10.80;;;6.88;;
73938;SDS011;62291;47.554;8.504;2023-07-09T04:56:54;10.30;;;6.15;;
73938;SDS011;62291;47.554;8.504;2023-07-09T04:59:21;11.25;;;6.10;;
73938;SDS011;62291;47.554;8.504;2023-07-09T05:01:47;7.78;;;5.68;;
73938;SDS011;62291;47.554;8.504;2023-07-09T05:04:12;10.45;;;6.78;;
73938;SDS011;62291;47.554;8.504;2023-07-09T05:06:38;8.40;;;6.68;;
73938;SDS011;62291;47.554;8.504;2023-07-09T05:09:04;10.82;;;6.55;;
73938;SDS011;62291;47.554;8.504;2023-07-09T05:11:34;10.40;;;6.88;;
73938;SDS011;62291;47.554;8.504;2023-07-09T05:14:01;8.00;;;6.10;;
73938;SDS011;62291;47.554;8.504;2023-07-09T05:16:27;9.65;;;7.15;;
73938;SDS011;62291;47.554;8.504;2023-07-09T05:18:53;11.75;;;6.40;;
73938;SDS011;62291;47.554;8.504;2023-07-09T05:21:19;13.25;;;7.10;;
73938;SDS011;62291;47.554;8.504;2023-07-09T05:23:45;10.15;;;6.70;;
73938;SDS011;62291;47.554;8.504;2023-07-09T05:26:10;10.02;;;6.95;;
73938;SDS011;62291;47.554;8.504;2023-07-09T05:28:36;10.15;;;6.25;;
73938;SDS011;62291;47.554;8.504;2023-07-09T05:31:03;10.80;;;6.72;;
73938;SDS011;62291;47.554;8.504;2023-07-09T05:33:30;8.10;;;5.90;;
73938;SDS011;62291;47.554;8.504;2023-07-09T05:35:55;12.48;;;6.07;;
73938;SDS011;62291;47.554;8.504;2023-07-09T05:38:21;6.95;;;5.72;;
73938;SDS011;62291;47.554;8.504;2023-07-09T05:40:47;10.10;;;6.40;;
73938;SDS011;62291;47.554;8.504;2023-07-09T05:43:13;11.95;;;6.32;;
73938;SDS011;62291;47.554;8.504;2023-07-09T05:45:40;7.72;;;6.10;;
73938;SDS011;62291;47.554;8.504;2023-07-09T05:48:06;11.18;;;5.78;;
73938;SDS011;62291;47.554;8.504;2023-07-09T05:50:33;12.07;;;6.40;;
73938;SDS011;62291;47.554;8.504;2023-07-09T05:53:00;7.95;;;5.47;;
73938;SDS011;62291;47.554;8.504;2023-07-09T05:55:26;11.52;;;5.40;;
73938;SDS011;62291;47.554;8.504;2023-07-09T05:57:52;8.98;;;5.30;;
73938;SDS011;62291;47.554;8.504;2023-07-09T06:00:18;5.90;;;5.35;;
73938;SDS011;62291;47.554;8.504;2023-07-09T06:02:44;7.03;;;5.63;;
73938;SDS011;62291;47.554;8.504;2023-07-09T06:05:10;7.13;;;5.80;;
73938;SDS011;62291;47.554;8.504;2023-07-09T06:07:36;11.13;;;5.53;;
73938;SDS011;62291;47.554;8.504;2023-07-09T06:10:03;10.45;;;5.25;;
73938;SDS011;62291;47.554;8.504;2023-07-09T06:12:32;10.30;;;5.70;;
73938;SDS011;62291;47.554;8.504;2023-07-09T06:14:59;8.32;;;5.03;;
73938;SDS011;62291;47.554;8.504;2023-07-09T06:17:24;6.45;;;5.22;;
73938;SDS011;62291;47.554;8.504;2023-07-09T06:19:50;6.40;;;4.88;;
73938;SDS011;62291;47.554;8.504;2023-07-09T06:22:16;7.03;;;4.65;;
73938;SDS011;62291;47.554;8.504;2023-07-09T06:24:42;7.50;;;4.72;;
73938;SDS011;62291;47.554;8.504;2023-07-09T06:27:08;9.00;;;5.45;;
73938;SDS011;62291;47.554;8.504;2023-07-09T06:29:34;7.75;;;5.18;;
73938;SDS011;62291;47.554;8.504;2023-07-09T06:32:00;6.82;;;5.53;;
73938;SDS011;62291;47.554;8.504;2023-07-09T06:34:26;8.35;;;4.97;;
73938;SDS011;62291;47.554;8.504;2023-07-09T06:36:52;5.85;;;4.63;;
73938;SDS011;62291;47.554;8.504;2023-07-09T06:39:18;8.70;;;5.30;;
73938;SDS011;62291;47.554;8.504;2023-07-09T06:41:44;8.23;;;4.82;;
73938;SDS011;62291;47.554;8.504;2023-07-09T06:44:10;9.48;;;5.00;;
73938;SDS011;62291;47.554;8.504;2023-07-09T06:46:35;7.25;;;5.13;;
73938;SDS011;62291;47.554;8.504;2023-07-09T06:49:02;8.32;;;5.13;;
73938;SDS011;62291;47.554;8.504;2023-07-09T06:51:30;7.45;;;4.40;;
73938;SDS011;62291;47.554;8.504;2023-07-09T06:53:56;8.15;;;4.80;;
73938;SDS011;62291;47.554;8.504;2023-07-09T06:56:23;7.03;;;5.00;;
73938;SDS011;62291;47.554;8.504;2023-07-09T06:58:48;8.60;;;4.85;;
73938;SDS011;62291;47.554;8.504;2023-07-09T07:01:14;6.28;;;4.50;;
73938;SDS011;62291;47.554;8.504;2023-07-09T07:03:40;8.05;;;5.70;;
73938;SDS011;62291;47.554;8.504;2023-07-09T07:06:06;7.80;;;4.55;;
73938;SDS011;62291;47.554;8.504;2023-07-09T07:08:32;5.78;;;4.70;;
73938;SDS011;62291;47.554;8.504;2023-07-09T07:10:59;7.40;;;4.57;;
73938;SDS011;62291;47.554;8.504;2023-07-09T07:13:31;6.28;;;4.90;;
73938;SDS011;62291;47.554;8.504;2023-07-09T07:16:00;8.60;;;4.85;;
73938;SDS011;62291;47.554;8.504;2023-07-09T07:18:27;6.15;;;4.70;;
73938;SDS011;62291;47.554;8.504;2023-07-09T07:20:53;7.50;;;4.43;;
73938;SDS011;62291;47.554;8.504;2023-07-09T07:23:18;7.68;;;4.68;;
73938;SDS011;62291;47.554;8.504;2023-07-09T07:25:45;6.72;;;4.43;;
73938;SDS011;62291;47.554;8.504;2023-07-09T07:28:12;7.35;;;4.38;;
73938;SDS011;62291;47.554;8.504;2023-07-09T07:30:38;10.30;;;4.55;;
73938;SDS011;62291;47.554;8.504;2023-07-09T07:33:03;7.88;;;4.32;;
73938;SDS011;62291;47.554;8.504;2023-07-09T07:35:29;5.20;;;3.92;;
73938;SDS011;62291;47.554;8.504;2023-07-09T07:37:55;6.68;;;4.18;;
73938;SDS011;62291;47.554;8.504;2023-07-09T07:40:21;6.07;;;4.57;;
73938;SDS011;62291;47.554;8.504;2023-07-09T07:42:46;12.85;;;4.88;;
73938;SDS011;62291;47.554;8.504;2023-07-09T07:45:12;9.10;;;4.70;;
73938;SDS011;62291;47.554;8.504;2023-07-09T07:47:38;5.88;;;4.35;;
73938;SDS011;62291;47.554;8.504;2023-07-09T07:50:05;7.03;;;4.30;;
73938;SDS011;62291;47.554;8.504;2023-07-09T07:52:31;8.98;;;4.95;;
73938;SDS011;62291;47.554;8.504;2023-07-09T07:54:57;7.63;;;4.15;;
73938;SDS011;62291;47.554;8.504;2023-07-09T07:57:26;8.45;;;4.40;;
73938;SDS011;62291;47.554;8.504;2023-07-09T07:59:52;5.22;;;4.32;;
73938;SDS011;62291;47.554;8.504;2023-07-09T08:02:18;7.85;;;4.60;;
73938;SDS011;62291;47.554;8.504;2023-07-09T08:04:43;7.15;;;4.55;;
73938;SDS011;62291;47.554;8.504;2023-07-09T08:07:09;7.35;;;4.43;;
73938;SDS011;62291;47.554;8.504;2023-07-09T08:09:35;6.00;;;4.20;;
73938;SDS011;62291;47.554;8.504;2023-07-09T08:12:04;5.90;;;4.32;;
73938;SDS011;62291;47.554;8.504;2023-07-09T08:14:35;8.57;;;4.20;;
73938;SDS011;62291;47.554;8.504;2023-07-09T08:17:01;7.28;;;4.45;;
73938;SDS011;62291;47.554;8.504;2023-07-09T08:19:27;6.25;;;4.15;;
73938;SDS011;62291;47.554;8.504;2023-07-09T08:21:52;8.20;;;4.32;;
73938;SDS011;62291;47.554;8.504;2023-07-09T08:24:18;7.95;;;4.63;;
73938;SDS011;62291;47.554;8.504;2023-07-09T08:26:44;7.75;;;4.22;;
73938;SDS011;62291;47.554;8.504;2023-07-09T08:29:09;7.45;;;3.97;;
73938;SDS011;62291;47.554;8.504;2023-07-09T08:31:35;5.95;;;3.90;;
73938;SDS011;62291;47.554;8.504;2023-07-09T08:34:01;5.95;;;3.97;;
73938;SDS011;62291;47.554;8.504;2023-07-09T08:36:27;5.57;;;3.90;;
73938;SDS011;62291;47.554;8.504;2023-07-09T08:38:53;7.47;;;4.07;;
73938;SDS011;62291;47.554;8.504;2023-07-09T08:44:17;5.63;;;3.55;;
73938;SDS011;62291;47.554;8.504;2023-07-09T08:49:16;5.05;;;3.53;;
73938;SDS011;62291;47.554;8.504;2023-07-09T08:51:48;4.60;;;3.75;;
73938;SDS011;62291;47.554;8.504;2023-07-09T08:54:17;5.30;;;3.70;;
73938;SDS011;62291;47.554;8.504;2023-07-09T08:56:50;10.05;;;4.18;;
73938;SDS011;62291;47.554;8.504;2023-07-09T08:59:16;6.00;;;4.03;;
73938;SDS011;62291;47.554;8.504;2023-07-09T09:01:51;8.10;;;3.80;;
73938;SDS011;62291;47.554;8.504;2023-07-09T09:04:29;6.00;;;4.13;;
73938;SDS011;62291;47.554;8.504;2023-07-09T09:07:16;6.22;;;3.83;;
73938;SDS011;62291;47.554;8.504;2023-07-09T09:10:00;7.50;;;3.75;;
73938;SDS011;62291;47.554;8.504;2023-07-09T09:12:29;5.93;;;4.07;;
73938;SDS011;62291;47.554;8.504;2023-07-09T09:15:11;5.07;;;3.70;;
73938;SDS011;62291;47.554;8.504;2023-07-09T09:17:41;5.13;;;3.67;;
73938;SDS011;62291;47.554;8.504;2023-07-09T09:20:11;7.07;;;3.47;;
73938;SDS011;62291;47.554;8.504;2023-07-09T09:22:57;5.65;;;3.55;;
73938;SDS011;62291;47.554;8.504;2023-07-09T09:25:37;8.00;;;3.75;;
73938;SDS011;62291;47.554;8.504;2023-07-09T09:28:07;7.10;;;3.70;;
73938;SDS011;62291;47.554;8.504;2023-07-09T09:30:33;6.28;;;3.40;;
73938;SDS011;62291;47.554;8.504;2023-07-09T09:33:04;4.95;;;3.53;;
73938;SDS011;62291;47.554;8.504;2023-07-09T09:37:59;7.25;;;3.63;;
73938;SDS011;62291;47.554;8.504;2023-07-09T09:40:27;5.68;;;3.92;;
73938;SDS011;62291;47.554;8.504;2023-07-09T09:42:58;5.88;;;3.25;;
73938;SDS011;62291;47.554;8.504;2023-07-09T09:45:26;10.00;;;3.70;;
73938;SDS011;62291;47.554;8.504;2023-07-09T09:48:00;7.00;;;3.67;;
73938;SDS011;62291;47.554;8.504;2023-07-09T09:50:33;6.38;;;3.55;;
73938;SDS011;62291;47.554;8.504;2023-07-09T09:52:59;7.03;;;4.10;;
73938;SDS011;62291;47.554;8.504;2023-07-09T09:55:30;4.78;;;3.50;;
73938;SDS011;62291;47.554;8.504;2023-07-09T09:57:57;7.00;;;3.80;;
73938;SDS011;62291;47.554;8.504;2023-07-09T10:00:24;7.03;;;3.88;;
73938;SDS011;62291;47.554;8.504;2023-07-09T10:02:59;6.65;;;4.10;;
73938;SDS011;62291;47.554;8.504;2023-07-09T10:05:30;7.22;;;4.22;;
73938;SDS011;62291;47.554;8.504;2023-07-09T10:08:00;7.43;;;3.97;;
73938;SDS011;62291;47.554;8.504;2023-07-09T10:10:34;6.05;;;3.70;;
73938;SDS011;62291;47.554;8.504;2023-07-09T10:21:14;5.50;;;4.20;;
73938;SDS011;62291;47.554;8.504;2023-07-09T10:26:53;6.45;;;3.92;;
73938;SDS011;62291;47.554;8.504;2023-07-09T10:29:41;4.72;;;3.75;;
73938;SDS011;62291;47.554;8.504;2023-07-09T10:32:31;5.20;;;3.80;;
73938;SDS011;62291;47.554;8.504;2023-07-09T10:37:51;4.22;;;3.40;;
73938;SDS011;62291;47.554;8.504;2023-07-09T10:40:53;4.65;;;3.42;;
73938;SDS011;62291;47.554;8.504;2023-07-09T10:43:20;5.07;;;3.45;;
73938;SDS011;62291;47.554;8.504;2023-07-09T10:45:54;5.80;;;3.50;;
73938;SDS011;62291;47.554;8.504;2023-07-09T10:48:38;7.60;;;3.70;;
73938;SDS011;62291;47.554;8.504;2023-07-09T10:51:31;4.07;;;3.13;;
73938;SDS011;62291;47.554;8.504;2023-07-09T10:57:13;6.60;;;3.65;;
73938;SDS011;62291;47.554;8.504;2023-07-09T10:59:47;7.53;;;3.17;;
73938;SDS011;62291;47.554;8.504;2023-07-09T11:07:52;4.95;;;3.22;;
73938;SDS011;62291;47.554;8.504;2023-07-09T11:10:30;4.55;;;3.30;;
73938;SDS011;62291;47.554;8.504;2023-07-09T11:15:35;6.15;;;3.35;;
73938;SDS011;62291;47.554;8.504;2023-07-09T11:18:05;5.13;;;2.85;;
73938;SDS011;62291;47.554;8.504;2023-07-09T11:20:36;4.97;;;3.00;;
73938;SDS011;62291;47.554;8.504;2023-07-09T11:23:16;4.60;;;3.25;;
73938;SDS011;62291;47.554;8.504;2023-07-09T11:25:47;5.82;;;3.30;;
73938;SDS011;62291;47.554;8.504;2023-07-09T11:28:14;6.88;;;3.63;;
73938;SDS011;62291;47.554;8.504;2023-07-09T11:30:47;5.97;;;3.30;;
73938;SDS011;62291;47.554;8.504;2023-07-09T11:33:18;4.15;;;2.80;;
73938;SDS011;62291;47.554;8.504;2023-07-09T11:35:49;6.30;;;3.10;;
73938;SDS011;62291;47.554;8.504;2023-07-09T11:38:19;4.45;;;3.17;;
73938;SDS011;62291;47.554;8.504;2023-07-09T11:40:54;8.05;;;3.10;;
73938;SDS011;62291;47.554;8.504;2023-07-09T11:43:34;6.10;;;3.00;;
73938;SDS011;62291;47.554;8.504;2023-07-09T11:46:23;4.05;;;3.10;;
73938;SDS011;62291;47.554;8.504;2023-07-09T11:48:49;4.40;;;2.92;;
73938;SDS011;62291;47.554;8.504;2023-07-09T11:51:20;3.55;;;2.90;;
73938;SDS011;62291;47.554;8.504;2023-07-09T11:53:56;5.88;;;3.05;;
73938;SDS011;62291;47.554;8.504;2023-07-09T11:56:23;4.95;;;3.00;;
73938;SDS011;62291;47.554;8.504;2023-07-09T11:58:54;4.75;;;2.90;;
73938;SDS011;62291;47.554;8.504;2023-07-09T12:01:23;5.65;;;2.85;;
73938;SDS011;62291;47.554;8.504;2023-07-09T12:04:13;5.45;;;2.85;;
73938;SDS011;62291;47.554;8.504;2023-07-09T12:06:40;7.10;;;2.67;;
73938;SDS011;62291;47.554;8.504;2023-07-09T12:09:09;7.20;;;2.70;;
73938;SDS011;62291;47.554;8.504;2023-07-09T12:11:43;4.10;;;2.50;;
73938;SDS011;62291;47.554;8.504;2023-07-09T12:14:15;5.18;;;2.92;;
73938;SDS011;62291;47.554;8.504;2023-07-09T12:16:49;5.78;;;3.03;;
73938;SDS011;62291;47.554;8.504;2023-07-09T12:19:17;4.05;;;2.88;;
73938;SDS011;62291;47.554;8.504;2023-07-09T12:21:45;4.82;;;2.97;;
73938;SDS011;62291;47.554;8.504;2023-07-09T12:24:20;3.92;;;2.78;;
73938;SDS011;62291;47.554;8.504;2023-07-09T12:26:54;3.42;;;2.65;;
73938;SDS011;62291;47.554;8.504;2023-07-09T12:29:28;6.38;;;3.20;;
73938;SDS011;62291;47.554;8.504;2023-07-09T12:31:56;5.72;;;3.00;;
73938;SDS011;62291;47.554;8.504;2023-07-09T12:34:22;7.00;;;3.17;;
73938;SDS011;62291;47.554;8.504;2023-07-09T12:36:49;6.93;;;3.20;;
73938;SDS011;62291;47.554;8.504;2023-07-09T12:39:19;5.53;;;3.22;;
73938;SDS011;62291;47.554;8.504;2023-07-09T12:41:54;3.72;;;2.70;;
73938;SDS011;62291;47.554;8.504;2023-07-09T12:44:22;4.88;;;2.90;;
73938;SDS011;62291;47.554;8.504;2023-07-09T12:46:49;6.03;;;2.60;;
73938;SDS011;62291;47.554;8.504;2023-07-09T12:49:24;5.70;;;3.00;;
73938;SDS011;62291;47.554;8.504;2023-07-09T12:51:55;6.03;;;3.00;;
73938;SDS011;62291;47.554;8.504;2023-07-09T12:54:22;7.05;;;2.67;;
73938;SDS011;62291;47.554;8.504;2023-07-09T12:56:52;7.53;;;3.20;;
73938;SDS011;62291;47.554;8.504;2023-07-09T12:59:20;5.15;;;3.10;;
73938;SDS011;62291;47.554;8.504;2023-07-09T13:05:03;6.32;;;3.10;;
73938;SDS011;62291;47.554;8.504;2023-07-09T13:07:32;5.22;;;3.30;;
73938;SDS011;62291;47.554;8.504;2023-07-09T13:10:07;4.93;;;2.88;;
73938;SDS011;62291;47.554;8.504;2023-07-09T13:12:41;5.00;;;2.97;;
73938;SDS011;62291;47.554;8.504;2023-07-09T13:18:09;4.65;;;2.60;;
73938;SDS011;62291;47.554;8.504;2023-07-09T13:20:37;4.63;;;2.95;;
73938;SDS011;62291;47.554;8.504;2023-07-09T13:23:09;4.93;;;2.53;;
73938;SDS011;62291;47.554;8.504;2023-07-09T13:25:38;5.75;;;2.63;;
73938;SDS011;62291;47.554;8.504;2023-07-09T13:28:04;8.05;;;2.72;;
73938;SDS011;62291;47.554;8.504;2023-07-09T13:30:30;3.97;;;2.80;;
73938;SDS011;62291;47.554;8.504;2023-07-09T13:32:56;6.03;;;2.92;;
73938;SDS011;62291;47.554;8.504;2023-07-09T13:35:22;4.85;;;2.80;;
73938;SDS011;62291;47.554;8.504;2023-07-09T13:37:48;5.75;;;2.85;;
73938;SDS011;62291;47.554;8.504;2023-07-09T13:40:14;8.23;;;2.92;;
73938;SDS011;62291;47.554;8.504;2023-07-09T13:42:41;8.52;;;2.75;;
73938;SDS011;62291;47.554;8.504;2023-07-09T13:45:22;11.20;;;3.15;;
73938;SDS011;62291;47.554;8.504;2023-07-09T13:47:50;7.80;;;2.88;;
73938;SDS011;62291;47.554;8.504;2023-07-09T13:50:16;5.20;;;2.60;;
73938;SDS011;62291;47.554;8.504;2023-07-09T13:52:43;7.85;;;2.85;;
73938;SDS011;62291;47.554;8.504;2023-07-09T13:55:17;5.20;;;2.78;;
73938;SDS011;62291;47.554;8.504;2023-07-09T13:57:45;6.90;;;2.85;;
73938;SDS011;62291;47.554;8.504;2023-07-09T14:00:12;5.72;;;2.88;;
73938;SDS011;62291;47.554;8.504;2023-07-09T14:02:38;4.93;;;2.78;;
73938;SDS011;62291;47.554;8.504;2023-07-09T14:05:05;5.93;;;3.00;;
73938;SDS011;62291;47.554;8.504;2023-07-09T14:07:36;6.70;;;2.70;;
73938;SDS011;62291;47.554;8.504;2023-07-09T14:10:05;4.28;;;2.63;;
73938;SDS011;62291;47.554;8.504;2023-07-09T14:12:32;7.45;;;3.22;;
73938;SDS011;62291;47.554;8.504;2023-07-09T14:15:00;5.72;;;2.55;;
73938;SDS011;62291;47.554;8.504;2023-07-09T14:17:26;7.47;;;2.83;;
73938;SDS011;62291;47.554;8.504;2023-07-09T14:19:53;4.57;;;2.65;;
73938;SDS011;62291;47.554;8.504;2023-07-09T14:22:34;4.25;;;2.40;;
73938;SDS011;62291;47.554;8.504;2023-07-09T14:25:02;6.10;;;2.60;;
73938;SDS011;62291;47.554;8.504;2023-07-09T14:27:29;6.72;;;3.13;;
73938;SDS011;62291;47.554;8.504;2023-07-09T14:29:55;5.15;;;2.70;;
73938;SDS011;62291;47.554;8.504;2023-07-09T14:32:34;7.82;;;2.75;;
73938;SDS011;62291;47.554;8.504;2023-07-09T14:35:09;5.45;;;2.70;;
73938;SDS011;62291;47.554;8.504;2023-07-09T14:37:38;6.30;;;2.72;;
73938;SDS011;62291;47.554;8.504;2023-07-09T14:40:03;5.30;;;2.70;;
73938;SDS011;62291;47.554;8.504;2023-07-09T14:42:30;3.90;;;2.75;;
73938;SDS011;62291;47.554;8.504;2023-07-09T14:44:56;4.13;;;2.50;;
73938;SDS011;62291;47.554;8.504;2023-07-09T14:47:22;5.07;;;2.55;;
73938;SDS011;62291;47.554;8.504;2023-07-09T14:49:48;5.20;;;2.58;;
73938;SDS011;62291;47.554;8.504;2023-07-09T14:52:17;6.57;;;2.63;;
73938;SDS011;62291;47.554;8.504;2023-07-09T14:54:45;8.27;;;2.90;;
73938;SDS011;62291;47.554;8.504;2023-07-09T14:57:17;5.13;;;2.95;;
73938;SDS011;62291;47.554;8.504;2023-07-09T14:59:45;4.35;;;2.45;;
73938;SDS011;62291;47.554;8.504;2023-07-09T15:02:19;5.00;;;2.97;;
73938;SDS011;62291;47.554;8.504;2023-07-09T15:04:57;5.90;;;2.70;;
73938;SDS011;62291;47.554;8.504;2023-07-09T15:07:23;5.57;;;2.50;;
73938;SDS011;62291;47.554;8.504;2023-07-09T15:09:54;5.05;;;2.70;;
73938;SDS011;62291;47.554;8.504;2023-07-09T15:12:28;6.55;;;2.65;;
73938;SDS011;62291;47.554;8.504;2023-07-09T15:15:12;6.85;;;2.63;;
73938;SDS011;62291;47.554;8.504;2023-07-09T15:17:38;4.53;;;2.67;;
73938;SDS011;62291;47.554;8.504;2023-07-09T15:20:04;7.82;;;3.05;;
73938;SDS011;62291;47.554;8.504;2023-07-09T15:22:31;5.28;;;2.80;;
73938;SDS011;62291;47.554;8.504;2023-07-09T15:25:01;5.30;;;2.72;;
73938;SDS011;62291;47.554;8.504;2023-07-09T15:27:27;5.88;;;2.35;;
73938;SDS011;62291;47.554;8.504;2023-07-09T15:29:52;6.97;;;3.00;;
73938;SDS011;62291;47.554;8.504;2023-07-09T15:32:18;5.90;;;2.45;;
73938;SDS011;62291;47.554;8.504;2023-07-09T15:34:44;6.28;;;2.80;;